Time;durP1;ratioP1;P1;durP2;ratioP2;P2;SDS_P1;SDS_P2;PMS_P1;PMS_P2;Temp;Humidity;BMP_temperature;BMP_pressure;BME280_temperature;BME280_humidity;BME280_pressure;Samples;Min_cycle;Max_cycle;Signal;HPM_P1;HPM_P2
2023/03/28 00:01:41;;;;;;;4.10;1.83;;;;;;;;;;7386911;19;20002;-66
2023/03/28 00:04:10;;;;;;;6.28;1.98;;;;;;;;;;7387597;19;20046;-67
2023/03/28 00:06:37;;;;;;;6.88;1.98;;;;;;;;;;7385916;19;20011;-67
2023/03/28 00:09:03;;;;;;;6.15;1.88;;;;;;;;;;7385495;19;20006;-66
2023/03/28 00:11:28;;;;;;;3.30;1.50;;;;;;;;;;7386573;19;20003;-69
2023/03/28 00:13:59;;;;;;;3.45;1.63;;;;;;;;;;7387301;19;20365;-67
2023/03/28 00:16:24;;;;;;;4.50;1.60;;;;;;;;;;7387217;19;20007;-66
2023/03/28 00:18:50;;;;;;;8.70;1.80;;;;;;;;;;7385442;19;20341;-67
2023/03/28 00:21:24;;;;;;;14.10;2.00;;;;;;;;;;7392413;19;20068;-66
2023/03/28 00:23:52;;;;;;;7.55;1.77;;;;;;;;;;7395177;19;20387;-67
2023/03/28 00:26:19;;;;;;;3.97;1.83;;;;;;;;;;7394569;19;20683;-67
2023/03/28 00:28:45;;;;;;;6.70;2.25;;;;;;;;;;7390517;19;19998;-67
2023/03/28 00:31:11;;;;;;;2.95;1.50;;;;;;;;;;7393930;19;20022;-67
2023/03/28 00:33:36;;;;;;;4.40;2.22;;;;;;;;;;7394643;19;20033;-67
2023/03/28 00:36:02;;;;;;;4.57;1.50;;;;;;;;;;7394340;19;20026;-67
2023/03/28 00:38:27;;;;;;;4.78;1.60;;;;;;;;;;7391695;19;20495;-67
2023/03/28 00:40:57;;;;;;;9.60;1.92;;;;;;;;;;7396376;19;19998;-67
2023/03/28 00:43:43;;;;;;;7.85;2.13;;;;;;;;;;7392877;19;20036;-67
2023/03/28 00:46:29;;;;;;;3.42;1.30;;;;;;;;;;7397387;19;20010;-67
2023/03/28 00:49:02;;;;;;;4.72;1.98;;;;;;;;;;7390023;19;20022;-66
2023/03/28 00:51:32;;;;;;;11.30;2.05;;;;;;;;;;7391229;19;20061;-67
2023/03/28 00:53:59;;;;;;;7.28;1.98;;;;;;;;;;7393788;19;20006;-68
2023/03/28 00:56:29;;;;;;;7.05;2.05;;;;;;;;;;7393410;19;20009;-67
2023/03/28 00:58:55;;;;;;;3.53;1.35;;;;;;;;;;7390977;19;20082;-67
2023/03/28 01:01:20;;;;;;;4.82;1.90;;;;;;;;;;7392828;19;20002;-67
2023/03/28 01:03:55;;;;;;;6.03;1.70;;;;;;;;;;7398002;19;20023;-67
2023/03/28 01:06:21;;;;;;;2.72;1.23;;;;;;;;;;7393597;19;20027;-66
2023/03/28 01:08:47;;;;;;;4.65;1.48;;;;;;;;;;7390828;19;20059;-66
2023/03/28 01:11:14;;;;;;;10.10;1.70;;;;;;;;;;7392466;19;20054;-67
2023/03/28 01:13:49;;;;;;;9.85;1.92;;;;;;;;;;7396521;19;20002;-70
2023/03/28 01:16:17;;;;;;;8.32;2.35;;;;;;;;;;7393708;19;20022;-67
2023/03/28 01:18:50;;;;;;;5.60;1.42;;;;;;;;;;7389550;19;20007;-67
2023/03/28 01:21:30;;;;;;;4.63;1.38;;;;;;;;;;7391369;19;20010;-67
2023/03/28 01:24:16;;;;;;;4.13;1.80;;;;;;;;;;7396705;19;20006;-67
2023/03/28 01:27:18;;;;;;;5.25;1.77;;;;;;;;;;7396532;19;20014;-67
2023/03/28 01:30:06;;;;;;;8.15;1.55;;;;;;;;;;7396458;19;19995;-67
2023/03/28 01:32:49;;;;;;;5.55;1.80;;;;;;;;;;7390552;19;19998;-67
2023/03/28 01:35:35;;;;;;;7.60;1.60;;;;;;;;;;7393136;19;20020;-67
2023/03/28 01:38:18;;;;;;;4.35;1.83;;;;;;;;;;7391192;19;20003;-66
2023/03/28 01:40:55;;;;;;;8.25;1.77;;;;;;;;;;7392296;19;20058;-67
2023/03/28 01:43:38;;;;;;;3.45;1.35;;;;;;;;;;7392943;19;20425;-66
2023/03/28 01:46:15;;;;;;;5.07;1.67;;;;;;;;;;7392819;19;19991;-67
2023/03/28 01:49:10;;;;;;;5.97;1.88;;;;;;;;;;7393221;19;20017;-67
2023/03/28 01:51:46;;;;;;;5.05;1.70;;;;;;;;;;7391211;19;20313;-67
2023/03/28 01:54:20;;;;;;;4.38;1.75;;;;;;;;;;7391980;19;20058;-66
2023/03/28 01:56:49;;;;;;;5.07;2.08;;;;;;;;;;7391841;19;20019;-66
2023/03/28 01:59:38;;;;;;;5.28;1.67;;;;;;;;;;7391991;19;19994;-68
2023/03/28 02:02:50;;;;;;;5.55;1.88;;;;;;;;;;7390241;19;20011;-67
2023/03/28 02:05:18;;;;;;;6.00;1.73;;;;;;;;;;7389696;19;20460;-67
2023/03/28 02:07:45;;;;;;;7.93;2.00;;;;;;;;;;7390233;19;19999;-67
2023/03/28 02:10:14;;;;;;;7.38;1.98;;;;;;;;;;7390831;19;19999;-67
2023/03/28 02:12:44;;;;;;;8.60;1.80;;;;;;;;;;7389798;19;19999;-66
2023/03/28 02:15:13;;;;;;;7.68;1.55;;;;;;;;;;7391208;19;19998;-66
2023/03/28 02:17:47;;;;;;;8.88;2.03;;;;;;;;;;7388562;19;20022;-67
2023/03/28 02:20:18;;;;;;;3.13;1.45;;;;;;;;;;7389100;19;20010;-66
2023/03/28 02:22:52;;;;;;;4.78;1.90;;;;;;;;;;7391026;19;20009;-67
2023/03/28 02:25:18;;;;;;;3.50;1.65;;;;;;;;;;7390706;19;20005;-68
2023/03/28 02:27:46;;;;;;;3.20;1.67;;;;;;;;;;7389502;19;20074;-67
2023/03/28 02:30:12;;;;;;;6.90;1.70;;;;;;;;;;7389793;19;20019;-67
2023/03/28 02:32:38;;;;;;;6.47;1.95;;;;;;;;;;7388577;19;19995;-69
2023/03/28 02:35:06;;;;;;;4.82;1.80;;;;;;;;;;7390367;19;20659;-66
2023/03/28 02:37:56;;;;;;;6.90;1.77;;;;;;;;;;7391812;19;20021;-67
2023/03/28 02:40:45;;;;;;;7.93;1.83;;;;;;;;;;7390382;19;20002;-67
2023/03/28 02:43:25;;;;;;;5.93;1.90;;;;;;;;;;7389671;19;20065;-67
2023/03/28 02:46:27;;;;;;;7.35;2.20;;;;;;;;;;7389897;19;20020;-67
2023/03/28 02:49:05;;;;;;;2.25;1.33;;;;;;;;;;7387233;19;19994;-66
2023/03/28 02:52:13;;;;;;;9.15;1.60;;;;;;;;;;7387124;19;20687;-66
2023/03/28 02:55:11;;;;;;;6.05;1.73;;;;;;;;;;7388566;19;19995;-66
2023/03/28 02:57:59;;;;;;;4.63;1.65;;;;;;;;;;7386716;19;19994;-67
2023/03/28 03:00:25;;;;;;;4.25;1.55;;;;;;;;;;7386836;19;20454;-67
2023/03/28 03:02:50;;;;;;;7.50;2.08;;;;;;;;;;7389795;19;19995;-66
2023/03/28 03:05:20;;;;;;;3.65;1.77;;;;;;;;;;7389448;19;19999;-67
2023/03/28 03:07:48;;;;;;;6.55;1.92;;;;;;;;;;7388329;19;20010;-68
2023/03/28 03:10:13;;;;;;;6.93;2.00;;;;;;;;;;7388833;19;20003;-68
2023/03/28 03:12:39;;;;;;;9.43;2.45;;;;;;;;;;7389127;19;20002;-66
2023/03/28 03:15:06;;;;;;;5.85;2.08;;;;;;;;;;7387455;19;20018;-67
2023/03/28 03:17:32;;;;;;;5.15;1.95;;;;;;;;;;7386653;19;20062;-65
2023/03/28 03:19:57;;;;;;;5.57;1.85;;;;;;;;;;7388905;19;20011;-67
2023/03/28 03:22:23;;;;;;;6.63;1.90;;;;;;;;;;7388769;19;20387;-65
2023/03/28 03:24:52;;;;;;;3.80;1.80;;;;;;;;;;7388896;19;20408;-67
2023/03/28 03:27:18;;;;;;;4.65;1.50;;;;;;;;;;7388669;19;19998;-67
2023/03/28 03:29:45;;;;;;;5.95;2.17;;;;;;;;;;7389138;19;19995;-67
2023/03/28 03:32:10;;;;;;;7.78;1.60;;;;;;;;;;7388500;19;20140;-68
2023/03/28 03:34:35;;;;;;;6.63;2.20;;;;;;;;;;7388960;19;19999;-68
2023/03/28 03:37:03;;;;;;;9.23;2.05;;;;;;;;;;7388516;19;19995;-66
2023/03/28 03:39:28;;;;;;;4.07;1.85;;;;;;;;;;7389419;19;20003;-66
2023/03/28 03:41:55;;;;;;;7.93;2.15;;;;;;;;;;7388254;19;20392;-66
2023/03/28 03:44:21;;;;;;;4.82;1.70;;;;;;;;;;7389107;19;19994;-66
2023/03/28 03:46:46;;;;;;;12.43;2.03;;;;;;;;;;7388959;19;20019;-66
2023/03/28 03:49:12;;;;;;;7.28;2.03;;;;;;;;;;7387603;19;19999;-67
2023/03/28 03:51:40;;;;;;;7.60;2.25;;;;;;;;;;7388395;19;20061;-67
2023/03/28 03:54:05;;;;;;;7.38;2.00;;;;;;;;;;7388203;19;20002;-67
2023/03/28 03:56:31;;;;;;;4.78;1.90;;;;;;;;;;7388827;19;20063;-68
2023/03/28 03:58:57;;;;;;;5.00;1.33;;;;;;;;;;7384901;19;20003;-68
2023/03/28 04:01:24;;;;;;;6.28;1.75;;;;;;;;;;7387570;19;20310;-67
2023/03/28 04:03:50;;;;;;;4.13;1.83;;;;;;;;;;7388651;19;20002;-68
2023/03/28 04:06:16;;;;;;;8.30;2.30;;;;;;;;;;7383430;19;20009;-67
2023/03/28 04:08:42;;;;;;;5.03;1.80;;;;;;;;;;7382734;19;20062;-67
2023/03/28 04:11:09;;;;;;;4.03;1.70;;;;;;;;;;7325301;19;20003;-68
2023/03/28 04:13:35;;;;;;;4.05;1.77;;;;;;;;;;7385488;19;20031;-68
2023/03/28 04:16:00;;;;;;;8.60;3.03;;;;;;;;;;7387549;19;20365;-67
2023/03/28 04:18:28;;;;;;;15.68;6.88;;;;;;;;;;7384633;19;20010;-67
2023/03/28 04:20:56;;;;;;;13.25;6.10;;;;;;;;;;7386921;19;20002;-67
2023/03/28 04:23:24;;;;;;;13.02;4.35;;;;;;;;;;7390335;19;20011;-67
2023/03/28 04:25:57;;;;;;;15.05;4.15;;;;;;;;;;7390539;19;20067;-67
2023/03/28 04:28:24;;;;;;;4.40;1.98;;;;;;;;;;7383643;19;20025;-68
2023/03/28 04:30:57;;;;;;;10.05;3.65;;;;;;;;;;7389583;19;20009;-68
2023/03/28 04:33:24;;;;;;;5.53;2.40;;;;;;;;;;7386337;19;20012;-68
2023/03/28 04:36:00;;;;;;;6.85;2.42;;;;;;;;;;7383855;19;20062;-67
2023/03/28 04:38:27;;;;;;;11.85;3.70;;;;;;;;;;7381283;19;20021;-67
2023/03/28 04:40:56;;;;;;;7.13;2.58;;;;;;;;;;7386186;19;20002;-68
2023/03/28 04:43:23;;;;;;;6.78;2.80;;;;;;;;;;7382724;19;20016;-68
2023/03/28 04:45:49;;;;;;;8.93;2.65;;;;;;;;;;7386721;19;20058;-68
2023/03/28 04:48:14;;;;;;;7.93;2.47;;;;;;;;;;7380765;19;20041;-68
2023/03/28 04:50:39;;;;;;;6.07;1.98;;;;;;;;;;7383211;19;19998;-68
2023/03/28 04:53:05;;;;;;;5.50;2.20;;;;;;;;;;7386177;19;19999;-67
2023/03/28 04:55:30;;;;;;;5.18;2.10;;;;;;;;;;7388805;19;20026;-68
2023/03/28 04:57:56;;;;;;;5.70;2.05;;;;;;;;;;7382765;19;20002;-68
2023/03/28 05:00:22;;;;;;;7.68;2.40;;;;;;;;;;7385475;19;20377;-67
2023/03/28 05:02:47;;;;;;;5.80;2.13;;;;;;;;;;7385777;19;20016;-68
2023/03/28 05:05:12;;;;;;;5.35;2.45;;;;;;;;;;7385964;19;20013;-67
2023/03/28 05:07:38;;;;;;;9.05;2.83;;;;;;;;;;7389968;19;19998;-68
2023/03/28 05:10:05;;;;;;;5.28;2.30;;;;;;;;;;7394108;19;20114;-68
2023/03/28 05:12:30;;;;;;;6.47;2.28;;;;;;;;;;7393879;19;19995;-68
2023/03/28 05:14:55;;;;;;;9.32;2.10;;;;;;;;;;7394399;19;20013;-67
2023/03/28 05:17:21;;;;;;;8.75;2.25;;;;;;;;;;7395564;19;20278;-67
2023/03/28 05:19:46;;;;;;;3.13;2.05;;;;;;;;;;7392269;19;20117;-67
2023/03/28 05:22:11;;;;;;;3.83;1.70;;;;;;;;;;7391105;19;20569;-61
2023/03/28 05:24:37;;;;;;;6.72;2.25;;;;;;;;;;7391230;19;20066;-70
2023/03/28 05:27:02;;;;;;;7.82;2.03;;;;;;;;;;7391088;19;20030;-68
2023/03/28 05:29:27;;;;;;;7.00;1.83;;;;;;;;;;7391247;19;20583;-68
2023/03/28 05:31:53;;;;;;;4.38;1.80;;;;;;;;;;7395029;19;20023;-68
2023/03/28 05:34:18;;;;;;;3.83;1.58;;;;;;;;;;7393026;19;20496;-68
2023/03/28 05:36:43;;;;;;;11.73;2.00;;;;;;;;;;7396204;19;20349;-67
2023/03/28 05:39:09;;;;;;;9.18;1.95;;;;;;;;;;7392535;19;20014;-67
2023/03/28 05:41:34;;;;;;;3.83;1.85;;;;;;;;;;7395056;19;20082;-68
2023/03/28 05:44:00;;;;;;;4.07;1.70;;;;;;;;;;7395773;19;19998;-68
2023/03/28 05:46:25;;;;;;;13.98;2.50;;;;;;;;;;7393055;19;20011;-68
2023/03/28 05:48:50;;;;;;;12.23;2.25;;;;;;;;;;7391391;19;20839;-68
2023/03/28 05:51:15;;;;;;;6.50;2.25;;;;;;;;;;7393824;19;20007;-68
2023/03/28 05:53:41;;;;;;;9.45;2.42;;;;;;;;;;7394993;19;19999;-67
2023/03/28 05:56:07;;;;;;;4.63;2.00;;;;;;;;;;7389088;19;20026;-68
2023/03/28 05:58:32;;;;;;;9.23;2.03;;;;;;;;;;7383775;19;20475;-67
2023/03/28 06:00:59;;;;;;;5.90;2.05;;;;;;;;;;7393244;19;19999;-69
2023/03/28 06:03:24;;;;;;;6.50;2.13;;;;;;;;;;7368678;19;20042;-69
2023/03/28 06:05:50;;;;;;;9.02;2.35;;;;;;;;;;7393818;19;20452;-67
2023/03/28 06:08:15;;;;;;;7.88;2.22;;;;;;;;;;7391753;19;20070;-67
2023/03/28 06:10:40;;;;;;;7.35;1.95;;;;;;;;;;7393383;19;20013;-67
2023/03/28 06:13:06;;;;;;;6.85;2.00;;;;;;;;;;7391421;19;20357;-69
2023/03/28 06:15:31;;;;;;;7.13;2.15;;;;;;;;;;7394049;19;20002;-69
2023/03/28 06:17:57;;;;;;;6.90;1.65;;;;;;;;;;7387211;19;20002;-68
2023/03/28 06:20:22;;;;;;;4.95;2.05;;;;;;;;;;7389818;19;20002;-68
2023/03/28 06:22:48;;;;;;;6.57;1.80;;;;;;;;;;7389025;19;20001;-68
2023/03/28 06:25:14;;;;;;;4.60;1.65;;;;;;;;;;7393440;19;19990;-68
2023/03/28 06:27:39;;;;;;;7.38;1.83;;;;;;;;;;7394046;19;20083;-68
2023/03/28 06:30:06;;;;;;;4.55;2.05;;;;;;;;;;7390994;19;20012;-68
2023/03/28 06:32:31;;;;;;;2.92;1.65;;;;;;;;;;7391663;19;20001;-68
2023/03/28 06:34:56;;;;;;;6.15;2.17;;;;;;;;;;7392749;19;19998;-69
2023/03/28 06:37:22;;;;;;;6.63;2.08;;;;;;;;;;7392282;19;20006;-68
2023/03/28 06:39:49;;;;;;;11.40;2.25;;;;;;;;;;7393290;19;20001;-68
2023/03/28 06:42:15;;;;;;;12.63;2.30;;;;;;;;;;7391231;19;19986;-68
2023/03/28 06:44:41;;;;;;;9.50;1.83;;;;;;;;;;7390969;19;20388;-68
2023/03/28 06:47:06;;;;;;;6.05;2.08;;;;;;;;;;7390349;19;20006;-69
2023/03/28 06:49:31;;;;;;;7.22;1.95;;;;;;;;;;7391400;19;20330;-68
2023/03/28 06:51:56;;;;;;;6.03;1.80;;;;;;;;;;7389858;19;20004;-68
2023/03/28 06:54:22;;;;;;;10.18;1.60;;;;;;;;;;7393026;19;20003;-67
2023/03/28 06:56:47;;;;;;;9.20;1.85;;;;;;;;;;7389344;19;20043;-68
2023/03/28 06:59:12;;;;;;;6.32;1.90;;;;;;;;;;7392539;19;19986;-68
2023/03/28 07:01:38;;;;;;;6.00;2.00;;;;;;;;;;7392252;19;20006;-68
2023/03/28 07:04:03;;;;;;;7.57;1.85;;;;;;;;;;7392720;19;20360;-68
2023/03/28 07:06:28;;;;;;;6.28;1.70;;;;;;;;;;7390956;19;19991;-68
2023/03/28 07:08:56;;;;;;;7.40;2.58;;;;;;;;;;7388255;19;19995;-68
2023/03/28 07:11:22;;;;;;;5.80;1.80;;;;;;;;;;7391586;19;19990;-68
2023/03/28 07:13:47;;;;;;;4.88;1.60;;;;;;;;;;7389658;19;20325;-68
2023/03/28 07:16:14;;;;;;;5.53;1.40;;;;;;;;;;7390522;19;20353;-67
2023/03/28 07:18:40;;;;;;;4.85;1.67;;;;;;;;;;7389900;19;20119;-69
2023/03/28 07:21:11;;;;;;;4.90;1.60;;;;;;;;;;7391370;19;20575;-69
2023/03/28 07:23:38;;;;;;;4.35;1.83;;;;;;;;;;7392088;19;19987;-69
2023/03/28 07:26:05;;;;;;;8.52;2.05;;;;;;;;;;7389196;19;20005;-67
2023/03/28 07:28:30;;;;;;;6.18;2.05;;;;;;;;;;7388245;19;20005;-69
2023/03/28 07:30:56;;;;;;;6.03;1.83;;;;;;;;;;7388539;19;21218;-67
2023/03/28 07:33:21;;;;;;;11.23;2.00;;;;;;;;;;7391824;19;19998;-68
2023/03/28 07:35:47;;;;;;;5.65;1.98;;;;;;;;;;7389008;19;20014;-67
2023/03/28 07:38:12;;;;;;;13.02;2.47;;;;;;;;;;7389394;19;19990;-68
2023/03/28 07:40:38;;;;;;;7.68;1.77;;;;;;;;;;7388052;19;20409;-68
2023/03/28 07:43:03;;;;;;;7.28;2.10;;;;;;;;;;7391703;19;19999;-68
2023/03/28 07:45:28;;;;;;;7.13;1.95;;;;;;;;;;7392006;19;20019;-68
2023/03/28 07:47:54;;;;;;;6.10;2.10;;;;;;;;;;7389718;19;19994;-69
2023/03/28 07:50:22;;;;;;;7.88;2.00;;;;;;;;;;7385769;19;20526;-69
2023/03/28 07:52:48;;;;;;;12.75;2.60;;;;;;;;;;7390936;19;20003;-68
2023/03/28 07:55:13;;;;;;;6.90;2.10;;;;;;;;;;7391680;19;20003;-69
2023/03/28 07:57:39;;;;;;;9.13;2.05;;;;;;;;;;7389336;19;20010;-68
2023/03/28 08:00:11;;;;;;;7.18;2.20;;;;;;;;;;7388383;19;20092;-67
2023/03/28 08:02:40;;;;;;;9.95;2.10;;;;;;;;;;7390591;19;20348;-68
2023/03/28 08:05:06;;;;;;;6.82;2.15;;;;;;;;;;7390409;19;20027;-67
2023/03/28 08:07:32;;;;;;;4.00;1.70;;;;;;;;;;7389321;19;20468;-68
2023/03/28 08:09:58;;;;;;;8.70;2.35;;;;;;;;;;7390885;19;20124;-67
2023/03/28 08:12:24;;;;;;;7.68;2.00;;;;;;;;;;7388010;19;20028;-67
2023/03/28 08:14:49;;;;;;;6.70;2.20;;;;;;;;;;7391316;19;20050;-68
2023/03/28 08:17:14;;;;;;;8.82;2.35;;;;;;;;;;7389621;19;20003;-68
2023/03/28 08:19:40;;;;;;;7.45;1.90;;;;;;;;;;7385733;19;20003;-69
2023/03/28 08:22:06;;;;;;;4.22;1.52;;;;;;;;;;7387782;19;20003;-69
2023/03/28 08:24:32;;;;;;;5.80;1.70;;;;;;;;;;7389049;19;20026;-68
2023/03/28 08:27:00;;;;;;;5.88;1.83;;;;;;;;;;7389316;19;20006;-68
2023/03/28 08:29:25;;;;;;;7.90;2.20;;;;;;;;;;7388093;19;20126;-67
2023/03/28 08:31:51;;;;;;;5.30;1.67;;;;;;;;;;7387075;19;20011;-67
2023/03/28 08:34:16;;;;;;;5.30;1.80;;;;;;;;;;7390323;19;20659;-67
2023/03/28 08:36:42;;;;;;;7.18;2.15;;;;;;;;;;7388849;19;20009;-69
2023/03/28 08:39:07;;;;;;;7.88;2.42;;;;;;;;;;7389556;19;20333;-68
2023/03/28 08:41:46;;;;;;;10.18;2.03;;;;;;;;;;7393704;19;20401;-69
2023/03/28 08:44:36;;;;;;;6.93;1.90;;;;;;;;;;7393359;19;20013;-67
2023/03/28 08:47:30;;;;;;;4.00;1.50;;;;;;;;;;7394819;19;20014;-68
2023/03/28 08:50:00;;;;;;;11.25;2.30;;;;;;;;;;7394021;19;20017;-68
2023/03/28 08:52:27;;;;;;;5.55;1.98;;;;;;;;;;7395921;19;20030;-67
2023/03/28 08:55:05;;;;;;;5.72;1.65;;;;;;;;;;7397083;19;20005;-67
2023/03/28 08:57:33;;;;;;;7.80;1.90;;;;;;;;;;7392690;19;20019;-67
2023/03/28 09:00:11;;;;;;;8.27;1.90;;;;;;;;;;7396373;19;20012;-69
2023/03/28 09:02:37;;;;;;;6.60;2.00;;;;;;;;;;7392243;19;20015;-69
2023/03/28 09:05:02;;;;;;;10.52;2.20;;;;;;;;;;7394071;19;20456;-68
2023/03/28 09:07:36;;;;;;;9.73;2.30;;;;;;;;;;7394891;19;20034;-68
2023/03/28 09:10:23;;;;;;;6.82;2.33;;;;;;;;;;7395591;19;20030;-67
2023/03/28 09:12:55;;;;;;;8.20;1.90;;;;;;;;;;7394713;19;20395;-68
2023/03/28 09:15:25;;;;;;;5.53;1.77;;;;;;;;;;7396180;19;19990;-68
2023/03/28 09:18:12;;;;;;;5.43;1.65;;;;;;;;;;7395227;19;20339;-68
2023/03/28 09:20:50;;;;;;;7.82;2.08;;;;;;;;;;7395084;19;19991;-69
2023/03/28 09:23:53;;;;;;;3.33;1.63;;;;;;;;;;7395719;19;20026;-69
2023/03/28 09:26:26;;;;;;;5.93;1.30;;;;;;;;;;7391382;19;20555;-70
2023/03/28 09:29:19;;;;;;;5.97;1.60;;;;;;;;;;7390516;19;20509;-68
2023/03/28 09:31:51;;;;;;;8.48;1.80;;;;;;;;;;7390637;19;20011;-70
2023/03/28 09:34:27;;;;;;;5.85;1.75;;;;;;;;;;7392431;19;20002;-70
2023/03/28 09:36:58;;;;;;;7.45;1.52;;;;;;;;;;7395788;19;20381;-70
2023/03/28 09:39:48;;;;;;;4.82;1.25;;;;;;;;;;7395483;19;20014;-69
2023/03/28 09:42:16;;;;;;;6.50;1.83;;;;;;;;;;7393327;19;20013;-70
2023/03/28 09:44:56;;;;;;;7.43;1.55;;;;;;;;;;7395519;19;20006;-69
2023/03/28 09:47:21;;;;;;;4.40;1.52;;;;;;;;;;7396180;19;20336;-69
2023/03/28 09:49:46;;;;;;;6.72;1.70;;;;;;;;;;7391234;19;20006;-70
2023/03/28 09:52:15;;;;;;;8.35;2.03;;;;;;;;;;7389178;19;20520;-71
2023/03/28 09:54:41;;;;;;;7.00;1.95;;;;;;;;;;7394402;19;20347;-70
2023/03/28 09:57:06;;;;;;;5.05;1.80;;;;;;;;;;7395958;19;20003;-71
2023/03/28 09:59:33;;;;;;;10.63;2.00;;;;;;;;;;7393615;19;20541;-70
2023/03/28 10:02:01;;;;;;;5.78;1.55;;;;;;;;;;7393252;19;20054;-70
2023/03/28 10:04:26;;;;;;;6.68;2.75;;;;;;;;;;7392369;19;20376;-70
2023/03/28 10:06:53;;;;;;;4.70;1.50;;;;;;;;;;7395238;19;20503;-70
2023/03/28 10:09:23;;;;;;;8.13;1.67;;;;;;;;;;7393445;19;20398;-69
2023/03/28 10:11:56;;;;;;;5.65;1.80;;;;;;;;;;7388551;19;20010;-71
2023/03/28 10:14:40;;;;;;;5.20;1.58;;;;;;;;;;7394880;19;20003;-69
2023/03/28 10:17:11;;;;;;;4.35;1.60;;;;;;;;;;7396068;19;20463;-70
2023/03/28 10:19:41;;;;;;;3.10;1.50;;;;;;;;;;7395625;19;20112;-70
2023/03/28 10:22:24;;;;;;;5.60;1.70;;;;;;;;;;7390072;19;20017;-70
2023/03/28 10:24:50;;;;;;;4.78;1.52;;;;;;;;;;7393850;19;20031;-70
2023/03/28 10:27:22;;;;;;;6.00;1.42;;;;;;;;;;7391475;19;20014;-70
2023/03/28 10:29:50;;;;;;;5.25;1.58;;;;;;;;;;7391811;19;20010;-70
2023/03/28 10:32:29;;;;;;;4.68;1.35;;;;;;;;;;7385809;19;20014;-70
2023/03/28 10:35:22;;;;;;;3.95;1.38;;;;;;;;;;7391588;19;20324;-69
2023/03/28 10:37:48;;;;;;;4.07;1.35;;;;;;;;;;7392252;19;20066;-71
2023/03/28 10:40:16;;;;;;;4.43;1.23;;;;;;;;;;7392461;19;20036;-69
2023/03/28 10:42:43;;;;;;;4.80;1.40;;;;;;;;;;7392440;19;20062;-70
2023/03/28 10:45:35;;;;;;;4.60;1.27;;;;;;;;;;7392918;19;20352;-70
2023/03/28 10:48:21;;;;;;;3.25;1.33;;;;;;;;;;7391237;19;20038;-71
2023/03/28 10:50:49;;;;;;;5.65;1.55;;;;;;;;;;7387341;19;20010;-69
2023/03/28 10:53:35;;;;;;;5.80;1.33;;;;;;;;;;7391716;19;20042;-70
2023/03/28 10:56:27;;;;;;;3.80;1.10;;;;;;;;;;7392934;19;20018;-69
2023/03/28 10:59:22;;;;;;;5.15;1.55;;;;;;;;;;7324521;19;20006;-69
2023/03/28 11:01:59;;;;;;;3.10;1.20;;;;;;;;;;7389210;19;20002;-70
2023/03/28 11:04:56;;;;;;;3.17;1.25;;;;;;;;;;7384467;19;20006;-70
2023/03/28 11:07:36;;;;;;;3.40;1.15;;;;;;;;;;7388926;19;20002;-72
2023/03/28 11:10:04;;;;;;;4.10;1.40;;;;;;;;;;7386136;19;20107;-71
2023/03/28 11:13:05;;;;;;;4.35;1.48;;;;;;;;;;7385028;19;19998;-71
2023/03/28 11:15:56;;;;;;;5.53;1.30;;;;;;;;;;7387346;19;20007;-70
2023/03/28 11:18:40;;;;;;;2.55;1.10;;;;;;;;;;7386932;19;20037;-70
2023/03/28 11:21:17;;;;;;;4.55;1.27;;;;;;;;;;7391465;19;20463;-70
2023/03/28 11:23:45;;;;;;;3.72;1.35;;;;;;;;;;7389746;19;20002;-70
2023/03/28 11:26:15;;;;;;;3.17;1.30;;;;;;;;;;7390263;19;20006;-70
2023/03/28 11:29:02;;;;;;;6.20;1.10;;;;;;;;;;7390088;19;19999;-69
2023/03/28 11:31:40;;;;;;;4.47;1.30;;;;;;;;;;7391599;19;20014;-70
2023/03/28 11:34:17;;;;;;;3.58;1.23;;;;;;;;;;7389747;19;19995;-71
2023/03/28 11:36:52;;;;;;;1.70;1.10;;;;;;;;;;7391263;19;20598;-71
2023/03/28 11:39:47;;;;;;;4.03;1.35;;;;;;;;;;7391932;19;20014;-70
2023/03/28 11:42:20;;;;;;;2.58;1.10;;;;;;;;;;7387929;19;20467;-71
2023/03/28 11:45:07;;;;;;;3.10;1.20;;;;;;;;;;7391633;19;20038;-71
2023/03/28 11:48:04;;;;;;;2.42;1.23;;;;;;;;;;7392288;19;20002;-70
2023/03/28 11:51:01;;;;;;;4.07;1.52;;;;;;;;;;7388433;19;19995;-69
2023/03/28 11:53:31;;;;;;;3.15;1.63;;;;;;;;;;7391071;19;20464;-70
2023/03/28 11:56:03;;;;;;;2.97;1.17;;;;;;;;;;7388886;19;19998;-69
2023/03/28 11:58:31;;;;;;;2.22;1.38;;;;;;;;;;7390016;19;20476;-71
2023/03/28 12:01:12;;;;;;;3.90;1.42;;;;;;;;;;7388888;19;19998;-70
2023/03/28 12:04:27;;;;;;;4.53;1.23;;;;;;;;;;7391835;19;20419;-70
2023/03/28 12:07:06;;;;;;;2.42;1.30;;;;;;;;;;7389411;19;20019;-70
2023/03/28 12:09:40;;;;;;;2.03;1.40;;;;;;;;;;7390483;19;20003;-70
2023/03/28 12:12:17;;;;;;;3.05;1.00;;;;;;;;;;7387005;19;19997;-70
2023/03/28 12:15:01;;;;;;;3.10;1.40;;;;;;;;;;7390884;19;20009;-70
2023/03/28 12:17:30;;;;;;;3.30;1.30;;;;;;;;;;7398036;19;20010;-71
2023/03/28 12:19:56;;;;;;;4.40;1.42;;;;;;;;;;7396112;19;20027;-71
2023/03/28 12:22:52;;;;;;;5.40;1.50;;;;;;;;;;7394107;19;20460;-70
2023/03/28 12:25:28;;;;;;;4.55;1.45;;;;;;;;;;7398547;19;20354;-70
2023/03/28 12:28:06;;;;;;;5.93;1.70;;;;;;;;;;7396513;19;20022;-70
2023/03/28 12:30:44;;;;;;;3.78;1.50;;;;;;;;;;7396796;19;21765;-70
2023/03/28 12:33:15;;;;;;;3.53;1.60;;;;;;;;;;7396207;19;20484;-70
2023/03/28 12:35:50;;;;;;;1.30;1.13;;;;;;;;;;7392828;19;20474;-70
2023/03/28 12:38:21;;;;;;;3.05;1.40;;;;;;;;;;7394793;19;20030;-71
2023/03/28 12:40:53;;;;;;;2.83;1.63;;;;;;;;;;7395824;19;20007;-70
2023/03/28 12:43:42;;;;;;;4.57;1.55;;;;;;;;;;7397539;19;20002;-70
2023/03/28 12:46:12;;;;;;;6.97;1.52;;;;;;;;;;7393686;19;20013;-70
2023/03/28 12:48:50;;;;;;;5.15;1.88;;;;;;;;;;7394301;19;20509;-69
2023/03/28 12:51:26;;;;;;;6.32;1.58;;;;;;;;;;7395588;19;19998;-69
2023/03/28 12:54:08;;;;;;;6.43;1.70;;;;;;;;;;7394234;19;19999;-70
2023/03/28 12:56:34;;;;;;;5.07;1.70;;;;;;;;;;7395976;19;20003;-70
2023/03/28 12:58:59;;;;;;;6.03;1.60;;;;;;;;;;7396574;19;20009;-70
2023/03/28 13:01:27;;;;;;;4.80;1.50;;;;;;;;;;7395098;19;20472;-70
2023/03/28 13:03:58;;;;;;;4.63;1.55;;;;;;;;;;7394876;19;20030;-69
2023/03/28 13:06:24;;;;;;;12.20;1.63;;;;;;;;;;7395335;19;20026;-69
2023/03/28 13:09:08;;;;;;;3.13;1.58;;;;;;;;;;7394463;19;20003;-71
2023/03/28 13:11:48;;;;;;;9.05;1.77;;;;;;;;;;7393615;19;20007;-71
2023/03/28 13:14:48;;;;;;;3.72;1.55;;;;;;;;;;7394859;19;20023;-70
2023/03/28 13:17:25;;;;;;;1.90;1.37;;;;;;;;;;7392235;19;20002;-72
2023/03/28 13:20:16;;;;;;;6.85;1.88;;;;;;;;;;7393621;19;20355;-71
2023/03/28 13:22:53;;;;;;;;;;;;;;;;;;7394513;19;20014;-70
2023/03/28 13:25:19;;;;;;;6.85;1.90;;;;;;;;;;7395713;19;19923;-71
2023/03/28 13:27:46;;;;;;;5.88;1.90;;;;;;;;;;7390657;19;20284;-71
2023/03/28 13:30:25;;;;;;;4.72;1.77;;;;;;;;;;7391320;19;20085;-70
2023/03/28 13:32:54;;;;;;;3.05;1.60;;;;;;;;;;7396164;19;20315;-70
2023/03/28 13:35:58;;;;;;;6.00;1.83;;;;;;;;;;7396280;19;20313;-70
2023/03/28 13:38:26;;;;;;;6.68;2.22;;;;;;;;;;7390655;19;20103;-71
2023/03/28 13:41:07;;;;;;;3.85;1.83;;;;;;;;;;7393426;19;20058;-70
2023/03/28 13:43:47;;;;;;;4.05;2.00;;;;;;;;;;7396768;19;20078;-70
2023/03/28 13:46:24;;;;;;;5.32;1.95;;;;;;;;;;7392631;19;20078;-70
2023/03/28 13:48:59;;;;;;;13.98;3.08;;;;;;;;;;7393627;19;19999;-71
2023/03/28 13:51:32;;;;;;;7.82;2.15;;;;;;;;;;7392433;19;19999;-72
2023/03/28 13:53:58;;;;;;;5.28;2.03;;;;;;;;;;7392590;19;20030;-70
2023/03/28 13:56:32;;;;;;;7.78;3.08;;;;;;;;;;7396580;19;19999;-70
2023/03/28 13:58:59;;;;;;;6.18;2.20;;;;;;;;;;7392122;19;20013;-71
2023/03/28 14:01:33;;;;;;;10.13;2.00;;;;;;;;;;7394703;19;20003;-70
2023/03/28 14:03:58;;;;;;;7.10;2.40;;;;;;;;;;7395223;19;20002;-70
2023/03/28 14:06:26;;;;;;;5.63;1.90;;;;;;;;;;7394307;19;20029;-71
2023/03/28 14:08:54;;;;;;;5.10;2.20;;;;;;;;;;7393364;19;20344;-71
2023/03/28 14:11:24;;;;;;;5.97;1.80;;;;;;;;;;7393905;19;20473;-71
2023/03/28 14:14:02;;;;;;;14.32;7.95;;;;;;;;;;7393337;19;20035;-71
2023/03/28 14:16:27;;;;;;;10.48;4.18;;;;;;;;;;7393742;19;20043;-71
2023/03/28 14:18:53;;;;;;;11.98;5.28;;;;;;;;;;7394699;19;20301;-71
2023/03/28 14:21:23;;;;;;;9.98;3.92;;;;;;;;;;7393371;19;20006;-72
2023/03/28 14:23:56;;;;;;;11.90;4.57;;;;;;;;;;7391964;19;20003;-71
2023/03/28 14:26:25;;;;;;;4.10;1.77;;;;;;;;;;7392733;19;20011;-71
2023/03/28 14:28:51;;;;;;;5.68;1.90;;;;;;;;;;7388613;19;20002;-71
2023/03/28 14:31:27;;;;;;;3.47;1.80;;;;;;;;;;7393249;19;20010;-71
2023/03/28 14:33:52;;;;;;;6.50;2.53;;;;;;;;;;7390787;19;20010;-70
2023/03/28 14:36:18;;;;;;;8.30;2.40;;;;;;;;;;7391822;19;20017;-71
2023/03/28 14:38:43;;;;;;;4.22;1.80;;;;;;;;;;7391990;19;20002;-70
2023/03/28 14:41:21;;;;;;;9.75;2.53;;;;;;;;;;7390396;19;19994;-70
2023/03/28 14:43:52;;;;;;;7.15;2.20;;;;;;;;;;7390903;19;20010;-69
2023/03/28 14:46:22;;;;;;;3.08;1.67;;;;;;;;;;7390359;19;20672;-72
2023/03/28 14:48:52;;;;;;;5.38;1.88;;;;;;;;;;7390201;19;20364;-70
2023/03/28 14:51:21;;;;;;;3.67;1.65;;;;;;;;;;7391183;19;19991;-70
2023/03/28 14:53:47;;;;;;;4.47;2.05;;;;;;;;;;7394052;19;19995;-72
2023/03/28 14:56:18;;;;;;;4.80;1.80;;;;;;;;;;7391182;19;19997;-71
2023/03/28 14:58:46;;;;;;;4.85;2.03;;;;;;;;;;7392583;19;20022;-70
2023/03/28 15:01:21;;;;;;;4.55;1.88;;;;;;;;;;7390137;19;20058;-71
2023/03/28 15:03:50;;;;;;;7.45;2.25;;;;;;;;;;7390166;19;20480;-69
2023/03/28 15:06:17;;;;;;;5.57;2.20;;;;;;;;;;7390353;19;19994;-71
2023/03/28 15:08:43;;;;;;;6.00;2.17;;;;;;;;;;7389895;19;20496;-69
2023/03/28 15:11:18;;;;;;;5.45;2.38;;;;;;;;;;7391407;19;20002;-69